createdAt,value
2022-08-20T00:00:14.032Z,67.13
2022-08-20T00:02:46.401Z,67.29
2022-08-20T00:05:13.241Z,67.00
2022-08-20T00:07:40.789Z,66.19
2022-08-20T00:10:08.404Z,65.97
2022-08-20T00:12:35.197Z,66.06
2022-08-20T00:15:02.276Z,67.33
2022-08-20T00:17:35.534Z,66.53
2022-08-20T00:20:02.071Z,66.12
2022-08-20T00:22:28.503Z,68.30
2022-08-20T00:24:54.980Z,67.90
2022-08-20T00:27:21.457Z,68.12
2022-08-20T00:29:48.282Z,68.39
2022-08-20T00:32:14.679Z,67.23
2022-08-20T00:34:42.432Z,68.10
2022-08-20T00:37:09.267Z,68.45
2022-08-20T00:39:35.839Z,68.20
2022-08-20T00:42:02.447Z,69.95
2022-08-20T00:44:28.899Z,69.12
2022-08-20T00:46:55.380Z,70.19
2022-08-20T00:49:24.905Z,68.90
2022-08-20T00:51:57.784Z,68.35
2022-08-20T00:54:29.750Z,68.27
2022-08-20T00:57:03.493Z,68.13
2022-08-20T00:59:31.668Z,68.67
2022-08-20T01:02:03.231Z,68.04
2022-08-20T01:04:31.420Z,69.29
2022-08-20T01:06:57.869Z,70.94
2022-08-20T01:09:49.403Z,70.38
2022-08-20T01:12:11.297Z,71.83
2022-08-20T01:14:46.841Z,70.98
2022-08-20T01:17:18.168Z,71.84
2022-08-20T01:19:47.562Z,70.67
2022-08-20T01:22:34.094Z,71.24
2022-08-20T01:25:09.993Z,72.14
2022-08-20T01:27:42.625Z,71.11
2022-08-20T01:30:09.694Z,71.23
2022-08-20T01:32:36.181Z,70.74
2022-08-20T01:35:02.652Z,70.56
2022-08-20T01:37:31.372Z,70.91
2022-08-20T01:39:58.632Z,68.87
2022-08-20T01:42:25.101Z,69.96
2022-08-20T01:44:52.686Z,71.40
2022-08-20T01:47:21.154Z,69.80
2022-08-20T01:49:52.626Z,71.07
2022-08-20T01:52:31.183Z,71.12
2022-08-20T01:54:57.753Z,71.98
2022-08-20T01:57:26.807Z,72.09
2022-08-20T01:59:53.580Z,71.71
2022-08-20T02:02:20.287Z,71.32
2022-08-20T02:04:46.857Z,72.07
2022-08-20T02:07:15.327Z,72.21
2022-08-20T02:09:41.778Z,72.31
2022-08-20T02:12:09.080Z,71.87
2022-08-20T02:14:37.027Z,72.73
2022-08-20T02:17:03.564Z,72.92
2022-08-20T02:19:33.841Z,72.91
2022-08-20T02:22:02.390Z,73.32
2022-08-20T02:24:29.989Z,73.53
2022-08-20T02:26:56.514Z,73.63
2022-08-20T02:29:23.778Z,74.20
2022-08-20T02:32:25.100Z,74.81
2022-08-20T02:34:36.854Z,74.45
2022-08-20T02:37:04.943Z,74.56
2022-08-20T02:39:31.664Z,74.25
2022-08-20T02:41:58.098Z,74.10
2022-08-20T02:44:24.535Z,75.77
2022-08-20T02:46:51.106Z,73.70
2022-08-20T02:49:18.119Z,74.95
2022-08-20T02:51:45.229Z,74.84
2022-08-20T02:54:12.232Z,75.44
2022-08-20T02:56:39.357Z,74.99
2022-08-20T02:59:06.605Z,74.74
2022-08-20T03:01:33.105Z,74.63
2022-08-20T03:04:00.203Z,73.54
2022-08-20T03:06:27.435Z,73.18
2022-08-20T03:08:53.939Z,73.37
2022-08-20T03:11:20.704Z,73.81
2022-08-20T03:13:47.465Z,73.89
2022-08-20T03:16:14.289Z,73.92
2022-08-20T03:18:43.089Z,75.39
2022-08-20T03:21:10.734Z,74.70
2022-08-20T03:23:41.315Z,74.17
2022-08-20T03:26:08.733Z,74.76
2022-08-20T03:28:35.474Z,74.06
2022-08-20T03:31:02.003Z,74.38
2022-08-20T03:33:30.172Z,74.58
2022-08-20T03:35:56.715Z,74.65
2022-08-20T03:38:33.134Z,75.19
2022-08-20T03:41:00.983Z,75.31
2022-08-20T03:43:27.532Z,75.27
2022-08-20T03:45:54.084Z,75.88
2022-08-20T03:48:20.962Z,78.02
2022-08-20T03:50:48.209Z,78.04
2022-08-20T03:53:14.922Z,77.23
2022-08-20T03:55:42.940Z,78.16
2022-08-20T03:58:12.562Z,77.08
2022-08-20T04:00:47.150Z,76.50
2022-08-20T04:03:13.611Z,75.98
2022-08-20T04:05:41.069Z,76.41
2022-08-20T04:08:09.170Z,76.82
2022-08-20T04:10:35.937Z,76.72
2022-08-20T04:13:02.536Z,76.54
2022-08-20T04:15:28.958Z,76.70
2022-08-20T04:17:55.562Z,76.43
2022-08-20T04:20:23.951Z,76.77
2022-08-20T04:22:58.966Z,76.98
2022-08-20T04:25:26.236Z,76.70
2022-08-20T04:27:53.499Z,76.61
2022-08-20T04:30:22.412Z,77.19
2022-08-20T04:32:49.854Z,78.54
2022-08-20T04:35:18.137Z,77.86
2022-08-20T04:37:46.343Z,78.41
2022-08-20T04:40:33.795Z,78.54
2022-08-20T04:43:00.288Z,77.68
2022-08-20T04:45:26.746Z,78.21
2022-08-20T04:47:53.931Z,78.37
2022-08-20T04:50:20.793Z,78.12
2022-08-20T04:52:49.885Z,78.82
2022-08-20T04:55:17.320Z,79.75
2022-08-20T04:57:44.253Z,79.01
2022-08-20T05:00:14.224Z,79.49
2022-08-20T05:02:41.814Z,79.64
2022-08-20T05:05:08.854Z,77.55
2022-08-20T05:07:42.994Z,78.96
2022-08-20T05:10:10.689Z,80.11
2022-08-20T05:12:37.286Z,80.95
2022-08-20T05:15:04.613Z,79.58
2022-08-20T05:17:31.075Z,79.05
2022-08-20T05:19:59.507Z,79.40
2022-08-20T05:22:26.875Z,79.44
2022-08-20T05:24:59.268Z,81.07
2022-08-20T05:27:28.731Z,79.89
2022-08-20T05:30:00.291Z,79.06
2022-08-20T05:32:27.079Z,79.77
2022-08-20T05:34:54.722Z,78.41
2022-08-20T05:37:21.164Z,79.70
2022-08-20T05:39:47.643Z,77.87
2022-08-20T05:42:14.076Z,79.62
2022-08-20T05:44:40.602Z,79.46
2022-08-20T05:47:07.094Z,78.66
2022-08-20T05:49:34.903Z,78.13
2022-08-20T05:52:01.377Z,77.90
2022-08-20T05:54:27.830Z,78.00
2022-08-20T05:56:54.433Z,77.75
2022-08-20T05:59:24.218Z,76.96
2022-08-20T06:01:51.311Z,76.52
2022-08-20T06:04:28.573Z,76.05
2022-08-20T06:07:03.684Z,76.05
2022-08-20T06:09:31.606Z,75.69
2022-08-20T06:12:00.382Z,75.17
2022-08-20T06:14:26.824Z,74.96
2022-08-20T06:16:57.804Z,74.82
2022-08-20T06:19:26.381Z,74.11
2022-08-20T06:21:53.284Z,74.67
2022-08-20T06:24:20.363Z,74.88
2022-08-20T06:26:46.845Z,73.75
2022-08-20T06:29:13.271Z,72.92
2022-08-20T06:31:40.313Z,73.27
2022-08-20T06:34:07.442Z,73.72
2022-08-20T06:36:34.537Z,73.08
2022-08-20T06:39:00.963Z,73.70
2022-08-20T06:41:36.074Z,72.65
2022-08-20T06:44:03.773Z,72.87
2022-08-20T06:46:30.220Z,72.67
2022-08-20T06:48:56.857Z,72.51
2022-08-20T06:51:23.391Z,73.37
2022-08-20T06:53:49.826Z,72.56
2022-08-20T06:56:16.667Z,72.90
2022-08-20T06:58:43.944Z,72.96
2022-08-20T07:01:11.782Z,73.12
2022-08-20T07:03:42.110Z,72.46
2022-08-20T07:06:21.879Z,72.06
2022-08-20T07:08:48.442Z,72.12
2022-08-20T07:11:14.906Z,72.35
2022-08-20T07:13:42.031Z,71.70
2022-08-20T07:16:08.994Z,71.46
2022-08-20T07:18:35.707Z,71.22
2022-08-20T07:21:02.157Z,71.69
2022-08-20T07:23:28.614Z,71.91
2022-08-20T07:25:57.914Z,71.86
2022-08-20T07:28:25.579Z,71.66
2022-08-20T07:31:13.565Z,72.15
2022-08-20T07:33:41.285Z,72.49
2022-08-20T07:36:08.562Z,72.50
2022-08-20T07:38:35.259Z,72.34
2022-08-20T07:41:02.815Z,72.28
2022-08-20T07:43:31.040Z,72.19
2022-08-20T07:46:00.758Z,72.27
2022-08-20T07:48:32.047Z,72.53
2022-08-20T07:51:00.012Z,72.31
2022-08-20T07:53:26.875Z,72.84
2022-08-20T07:55:59.203Z,73.25
2022-08-20T07:58:33.096Z,73.20
2022-08-20T08:00:59.838Z,72.28
2022-08-20T08:03:39.341Z,72.00
2022-08-20T08:06:14.539Z,71.59
2022-08-20T08:08:43.724Z,72.03
2022-08-20T08:11:11.211Z,71.79
2022-08-20T08:13:40.466Z,72.28
2022-08-20T08:16:08.139Z,71.92
2022-08-20T08:18:40.422Z,71.64
2022-08-20T08:21:07.813Z,71.78
2022-08-20T08:23:34.937Z,71.28
2022-08-20T08:26:02.108Z,71.04
2022-08-20T08:28:29.714Z,71.05
2022-08-20T08:30:56.331Z,71.00
2022-08-20T08:33:33.585Z,71.22
2022-08-20T08:36:01.828Z,70.96
2022-08-20T08:38:28.593Z,71.24
2022-08-20T08:41:00.061Z,71.00
2022-08-20T08:43:27.882Z,71.63
2022-08-20T08:46:03.781Z,71.92
2022-08-20T08:48:32.484Z,70.74
2022-08-20T08:50:59.581Z,70.72
2022-08-20T08:53:28.222Z,71.10
2022-08-20T08:55:54.793Z,70.28
2022-08-20T08:58:21.334Z,69.99
2022-08-20T09:00:56.008Z,70.16
2022-08-20T09:03:29.443Z,70.31
2022-08-20T09:05:59.786Z,69.99
2022-08-20T09:08:29.673Z,69.68
2022-08-20T09:11:00.809Z,69.07
2022-08-20T09:13:27.286Z,70.05
2022-08-20T09:15:53.716Z,69.17
2022-08-20T09:18:20.165Z,68.07
2022-08-20T09:20:46.593Z,67.63
2022-08-20T09:23:13.029Z,67.92
2022-08-20T09:25:39.449Z,67.82
2022-08-20T09:28:05.922Z,67.31
2022-08-20T09:30:32.456Z,67.31
2022-08-20T09:33:00.164Z,67.63
2022-08-20T09:35:27.224Z,68.00
2022-08-20T09:37:53.772Z,68.24
2022-08-20T09:40:21.391Z,68.40
2022-08-20T09:42:48.527Z,68.67
2022-08-20T09:45:15.639Z,67.93
2022-08-20T09:47:57.048Z,67.91
2022-08-20T09:50:25.164Z,68.55
2022-08-20T09:52:52.877Z,68.42
2022-08-20T09:55:24.653Z,68.32
2022-08-20T09:57:51.684Z,67.96
2022-08-20T10:00:18.439Z,68.44
2022-08-20T10:02:44.983Z,67.21
2022-08-20T10:05:11.708Z,66.92
2022-08-20T10:07:39.414Z,66.63
2022-08-20T10:10:07.003Z,64.62
2022-08-20T10:12:33.540Z,64.48
2022-08-20T10:15:00.102Z,63.97
2022-08-20T10:17:26.558Z,63.13
2022-08-20T10:19:53.229Z,63.76
2022-08-20T10:22:19.713Z,63.73
2022-08-20T10:24:46.253Z,63.44
2022-08-20T10:27:12.670Z,64.09
2022-08-20T10:29:39.184Z,64.43
2022-08-20T10:32:14.887Z,64.15
2022-08-20T10:34:42.295Z,63.01
2022-08-20T10:37:09.492Z,63.16
2022-08-20T10:39:36.235Z,62.63
2022-08-20T10:42:02.843Z,62.90
2022-08-20T10:44:30.429Z,62.93
2022-08-20T10:46:57.033Z,62.02
2022-08-20T10:49:23.794Z,59.90
2022-08-20T10:51:50.208Z,59.69
2022-08-20T10:54:16.660Z,58.56
2022-08-20T10:56:43.137Z,58.76
2022-08-20T10:59:09.678Z,58.59
2022-08-20T11:01:36.967Z,57.72
2022-08-20T11:04:03.863Z,57.44
2022-08-20T11:06:30.325Z,57.85
2022-08-20T11:08:57.211Z,58.26
2022-08-20T11:11:23.954Z,58.24
2022-08-20T11:13:50.369Z,58.22
2022-08-20T11:16:16.850Z,58.15
2022-08-20T11:18:46.897Z,58.12
2022-08-20T11:21:14.516Z,57.67
2022-08-20T11:23:40.989Z,57.61
2022-08-20T11:26:07.473Z,56.29
2022-08-20T11:28:34.216Z,55.98
2022-08-20T11:31:01.518Z,55.37
2022-08-20T11:33:28.291Z,53.86
2022-08-20T11:35:54.699Z,53.79
2022-08-20T11:38:21.178Z,53.34
2022-08-20T11:40:47.696Z,53.30
2022-08-20T11:43:16.213Z,51.74
2022-08-20T11:45:44.460Z,50.74
2022-08-20T11:48:10.877Z,50.80
2022-08-20T11:50:37.410Z,49.63
2022-08-20T11:53:03.849Z,47.95
2022-08-20T11:55:31.090Z,47.74
2022-08-20T11:58:00.338Z,47.76
2022-08-20T12:00:31.778Z,47.52
2022-08-20T12:03:00.100Z,45.63
2022-08-20T12:05:27.443Z,45.56
2022-08-20T12:07:54.028Z,45.37
2022-08-20T12:10:20.532Z,43.66
2022-08-20T12:12:46.972Z,43.55
2022-08-20T12:15:13.448Z,45.48
2022-08-20T12:17:39.888Z,44.19
2022-08-20T12:20:12.123Z,43.78
2022-08-20T12:22:39.102Z,43.15
2022-08-20T12:25:06.533Z,43.86
2022-08-20T12:27:33.939Z,43.37
2022-08-20T12:30:02.047Z,42.70
2022-08-20T12:32:29.736Z,41.18
2022-08-20T12:34:57.005Z,42.06
2022-08-20T12:37:25.498Z,42.30
2022-08-20T12:39:53.144Z,42.46
2022-08-20T12:42:20.726Z,40.84
2022-08-20T12:44:47.344Z,40.93
2022-08-20T12:47:15.094Z,39.22
2022-08-20T12:49:43.050Z,38.73
2022-08-20T12:52:09.618Z,39.52
2022-08-20T12:54:36.122Z,38.71
2022-08-20T12:57:02.611Z,39.05
2022-08-20T12:59:34.484Z,38.18
2022-08-20T13:02:11.494Z,38.78
2022-08-20T13:04:40.759Z,38.33
2022-08-20T13:07:07.386Z,38.24
2022-08-20T13:09:38.257Z,37.65
2022-08-20T13:12:07.539Z,38.91
2022-08-20T13:14:34.503Z,39.28
2022-08-20T13:17:01.312Z,38.80
2022-08-20T13:19:28.836Z,38.38
2022-08-20T13:21:55.441Z,37.88
2022-08-20T13:24:21.902Z,37.76
2022-08-20T13:26:48.817Z,38.41
2022-08-20T13:29:16.074Z,38.94
2022-08-20T13:31:42.926Z,39.11
2022-08-20T13:34:09.744Z,39.86
2022-08-20T13:36:36.259Z,39.40
2022-08-20T13:39:04.957Z,38.76
2022-08-20T13:41:31.500Z,39.32
2022-08-20T13:43:57.938Z,39.92
2022-08-20T13:46:24.422Z,39.74
2022-08-20T13:48:50.855Z,39.55
2022-08-20T13:51:18.163Z,39.83
2022-08-20T13:53:45.975Z,40.63
2022-08-20T13:56:13.338Z,40.71
2022-08-20T13:58:39.826Z,41.18
2022-08-20T14:01:06.439Z,41.70
2022-08-20T14:03:34.827Z,41.96
2022-08-20T14:06:02.296Z,42.57
2022-08-20T14:08:28.861Z,43.85
2022-08-20T14:10:55.613Z,44.41
2022-08-20T14:13:23.467Z,45.82
2022-08-20T14:15:49.946Z,46.32
2022-08-20T14:18:16.495Z,47.45
2022-08-20T14:20:45.346Z,47.83
2022-08-20T14:23:12.235Z,47.42
2022-08-20T14:25:38.704Z,48.45
2022-08-20T14:28:12.920Z,48.86
2022-08-20T14:30:39.965Z,49.18
2022-08-20T14:33:06.748Z,49.99
2022-08-20T14:35:33.252Z,49.75
2022-08-20T14:38:01.128Z,50.30
2022-08-20T14:40:28.298Z,50.05
2022-08-20T14:42:55.822Z,49.06
2022-08-20T14:45:22.876Z,50.24
2022-08-20T14:47:54.177Z,50.75
2022-08-20T14:50:22.736Z,50.83
2022-08-20T14:52:49.299Z,51.01
2022-08-20T14:55:17.804Z,51.67
2022-08-20T14:57:44.471Z,50.68
2022-08-20T15:00:12.903Z,51.64
2022-08-20T15:02:39.873Z,51.52
2022-08-20T15:05:07.307Z,51.52
2022-08-20T15:07:36.879Z,50.81
2022-08-20T15:10:06.517Z,50.67
2022-08-20T15:12:35.250Z,50.54
2022-08-20T15:15:13.325Z,50.48
2022-08-20T15:17:50.389Z,51.67
2022-08-20T15:20:20.937Z,52.06
2022-08-20T15:22:48.411Z,52.46
2022-08-20T15:25:16.756Z,52.80
2022-08-20T15:27:44.230Z,53.13
2022-08-20T15:30:15.952Z,52.62
2022-08-20T15:32:42.375Z,52.33
2022-08-20T15:35:11.304Z,52.19
2022-08-20T15:37:46.142Z,52.70
2022-08-20T15:40:16.030Z,53.08
2022-08-20T15:42:43.495Z,53.33
2022-08-20T15:45:13.806Z,54.13
2022-08-20T15:47:54.711Z,54.89
2022-08-20T15:50:34.855Z,55.51
2022-08-20T15:53:05.333Z,55.60
2022-08-20T15:55:31.849Z,56.28
2022-08-20T15:58:17.530Z,56.34
2022-08-20T16:00:57.009Z,56.16
2022-08-20T16:04:00.561Z,56.30
2022-08-20T16:06:30.886Z,56.73
2022-08-20T16:09:03.554Z,56.61
2022-08-20T16:11:42.937Z,57.01
2022-08-20T16:14:09.341Z,57.52
2022-08-20T16:16:39.517Z,58.50
2022-08-20T16:19:07.439Z,60.62
2022-08-20T16:21:36.913Z,61.96
2022-08-20T16:24:05.796Z,63.20
2022-08-20T16:26:47.986Z,62.65
2022-08-20T16:29:19.902Z,62.57
2022-08-20T16:31:48.361Z,62.50
2022-08-20T16:34:33.952Z,61.75
2022-08-20T16:37:10.381Z,61.14
2022-08-20T16:39:50.849Z,60.33
2022-08-20T16:42:20.902Z,59.81
2022-08-20T16:44:49.339Z,59.99
2022-08-20T16:47:21.658Z,59.99
2022-08-20T16:50:08.329Z,59.21
2022-08-20T16:52:34.766Z,58.29
2022-08-20T16:55:01.204Z,58.22
2022-08-20T16:57:28.155Z,56.93
2022-08-20T16:59:56.108Z,57.00
2022-08-20T17:02:22.708Z,56.94
2022-08-20T17:04:59.404Z,56.59
2022-08-20T17:07:40.553Z,57.01
2022-08-20T17:10:30.037Z,57.07
2022-08-20T17:13:19.791Z,56.67
2022-08-20T17:15:54.025Z,56.72
2022-08-20T17:18:24.365Z,57.26
2022-08-20T17:20:50.825Z,57.48
2022-08-20T17:23:19.171Z,58.09
2022-08-20T17:25:54.540Z,58.38
2022-08-20T17:28:23.050Z,57.96
2022-08-20T17:30:49.692Z,58.13
2022-08-20T17:33:24.362Z,58.17
2022-08-20T17:35:55.380Z,58.16
2022-08-20T17:38:37.050Z,58.08
2022-08-20T17:41:08.108Z,58.56
2022-08-20T17:43:34.853Z,58.85
2022-08-20T17:46:18.942Z,59.08
2022-08-20T17:48:46.767Z,59.31
2022-08-20T17:51:18.696Z,59.62
2022-08-20T17:53:49.876Z,59.39
2022-08-20T17:56:19.738Z,60.72
2022-08-20T17:58:54.862Z,61.42
2022-08-20T18:01:22.371Z,61.76
2022-08-20T18:03:49.947Z,62.34
2022-08-20T18:06:19.182Z,63.37
2022-08-20T18:08:48.687Z,62.62
2022-08-20T18:11:24.666Z,65.04
2022-08-20T18:13:54.119Z,65.15
2022-08-20T18:16:25.750Z,65.59
2022-08-20T18:19:02.583Z,66.64
2022-08-20T18:21:32.315Z,65.29
2022-08-20T18:24:05.095Z,64.98
2022-08-20T18:26:41.968Z,65.72
2022-08-20T18:29:13.715Z,65.65
2022-08-20T18:31:40.112Z,65.36
2022-08-20T18:34:11.211Z,65.77
2022-08-20T18:36:37.674Z,65.49
2022-08-20T18:39:04.484Z,66.21
2022-08-20T18:41:33.055Z,66.78
2022-08-20T18:44:10.609Z,66.20
2022-08-20T18:46:38.887Z,66.50
2022-08-20T18:49:06.678Z,66.60
2022-08-20T18:51:41.652Z,66.90
2022-08-20T18:54:08.979Z,66.41
2022-08-20T18:56:37.432Z,66.87
2022-08-20T18:59:03.858Z,66.55
2022-08-20T19:01:34.972Z,66.12
2022-08-20T19:04:01.968Z,66.26
2022-08-20T19:06:31.614Z,67.85
2022-08-20T19:09:01.138Z,67.73
2022-08-20T19:11:53.744Z,67.91
2022-08-20T19:14:27.470Z,67.76
2022-08-20T19:17:04.333Z,67.04
2022-08-20T19:19:32.997Z,68.78
2022-08-20T19:22:00.592Z,68.07
2022-08-20T19:24:28.432Z,69.74
2022-08-20T19:26:57.266Z,69.33
2022-08-20T19:29:29.508Z,68.62
2022-08-20T19:32:00.263Z,69.22
2022-08-20T19:34:26.941Z,69.44
2022-08-20T19:36:55.426Z,70.06
2022-08-20T19:39:24.688Z,70.15
2022-08-20T19:41:55.512Z,69.92
2022-08-20T19:44:32.985Z,70.35
2022-08-20T19:47:00.819Z,69.34
2022-08-20T19:49:37.098Z,71.05
2022-08-20T19:52:09.577Z,71.64
2022-08-20T19:54:43.388Z,71.34
2022-08-20T19:57:10.601Z,71.62
2022-08-20T19:59:37.065Z,71.77
2022-08-20T20:02:20.658Z,71.70
2022-08-20T20:04:55.298Z,71.09
2022-08-20T20:07:26.877Z,71.21
2022-08-20T20:09:55.472Z,73.28
2022-08-20T20:12:23.195Z,72.20
2022-08-20T20:14:51.405Z,72.04
2022-08-20T20:17:23.302Z,72.36
2022-08-20T20:20:00.690Z,74.32
2022-08-20T20:22:29.349Z,74.13
2022-08-20T20:24:58.962Z,73.71
2022-08-20T20:27:26.627Z,74.41
2022-08-20T20:30:04.542Z,73.64
2022-08-20T20:32:33.649Z,74.37
2022-08-20T20:35:02.009Z,73.86
2022-08-20T20:37:50.732Z,75.74
2022-08-20T20:40:33.336Z,74.90
2022-08-20T20:43:02.532Z,74.51
2022-08-20T20:45:32.051Z,74.76
2022-08-20T20:47:58.656Z,76.65
2022-08-20T20:50:27.337Z,75.83
2022-08-20T20:52:56.818Z,75.91
2022-08-20T20:55:25.337Z,76.04
2022-08-20T20:57:51.829Z,75.46
2022-08-20T21:00:19.811Z,78.72
2022-08-20T21:02:46.840Z,78.29
2022-08-20T21:05:14.628Z,78.13
2022-08-20T21:07:56.101Z,76.26
2022-08-20T21:10:24.685Z,75.58
2022-08-20T21:12:53.075Z,76.03
2022-08-20T21:15:20.350Z,76.85
2022-08-20T21:17:46.928Z,75.54
2022-08-20T21:20:13.607Z,75.61
2022-08-20T21:22:40.819Z,76.37
2022-08-20T21:25:07.497Z,76.33
2022-08-20T21:27:34.348Z,75.75
2022-08-20T21:30:03.636Z,76.18
2022-08-20T21:32:30.255Z,75.46
2022-08-20T21:34:56.876Z,75.95
2022-08-20T21:37:26.077Z,77.25
2022-08-20T21:39:55.580Z,77.05
2022-08-20T21:42:28.496Z,77.65
2022-08-20T21:44:56.128Z,78.45
2022-08-20T21:47:22.850Z,78.96
2022-08-20T21:49:49.310Z,77.66
2022-08-20T21:52:18.569Z,77.73
2022-08-20T21:54:45.034Z,76.55
2022-08-20T21:57:21.413Z,77.68
2022-08-20T21:59:48.808Z,77.06
2022-08-20T22:02:18.720Z,76.51
2022-08-20T22:04:45.375Z,76.26
2022-08-20T22:07:15.310Z,76.18
2022-08-20T22:09:41.787Z,76.80
2022-08-20T22:12:16.685Z,76.04
2022-08-20T22:14:43.175Z,77.12
2022-08-20T22:17:09.621Z,77.10
2022-08-20T22:19:36.035Z,76.57
2022-08-20T22:22:02.609Z,76.48
2022-08-20T22:24:29.468Z,76.83
2022-08-20T22:26:56.320Z,77.21
2022-08-20T22:29:22.861Z,76.15
2022-08-20T22:31:49.541Z,76.60
2022-08-20T22:34:18.751Z,76.82
2022-08-20T22:36:45.468Z,76.80
2022-08-20T22:39:11.957Z,78.19
2022-08-20T22:41:38.978Z,77.96
2022-08-20T22:44:05.994Z,77.43
2022-08-20T22:46:35.290Z,77.67
2022-08-20T22:49:02.609Z,77.45
2022-08-20T22:51:30.461Z,77.80
2022-08-20T22:53:57.157Z,78.44
2022-08-20T22:56:23.618Z,78.07
2022-08-20T22:58:50.458Z,78.23
2022-08-20T23:01:18.463Z,78.77
2022-08-20T23:03:45.038Z,80.14
2022-08-20T23:06:12.475Z,79.08
2022-08-20T23:08:39.226Z,79.73
2022-08-20T23:11:06.413Z,79.33
2022-08-20T23:13:32.884Z,78.98
2022-08-20T23:15:59.652Z,77.97
2022-08-20T23:18:26.090Z,77.80
2022-08-20T23:20:54.248Z,79.62
2022-08-20T23:23:21.146Z,79.55
2022-08-20T23:25:47.702Z,80.16
2022-08-20T23:28:16.377Z,80.02
2022-08-20T23:30:42.817Z,80.32
2022-08-20T23:33:09.241Z,80.38
2022-08-20T23:35:37.360Z,80.46
2022-08-20T23:38:03.816Z,81.15
2022-08-20T23:40:30.277Z,81.03
2022-08-20T23:42:57.076Z,80.82
2022-08-20T23:45:24.138Z,81.14
2022-08-20T23:47:50.815Z,80.84
2022-08-20T23:50:18.783Z,82.00
2022-08-20T23:52:45.242Z,81.38
2022-08-20T23:55:12.028Z,82.56
2022-08-20T23:57:39.295Z,82.75
